Time;durP1;ratioP1;P1;durP2;ratioP2;P2;SDS_P1;SDS_P2;PMS_P1;PMS_P2;Temp;Humidity;BMP_temperature;BMP_pressure;BME280_temperature;BME280_humidity;BME280_pressure;Samples;Min_cycle;Max_cycle;Signal;HPM_P1;HPM_P2
2022/07/30 00:01:20;;;;;;;9.43;2.40;;;;;;;18.97;69.68;100847.19;6050176;28;20037;-64
2022/07/30 00:04:15;;;;;;;6.30;2.20;;;;;;;19.02;69.81;100865.44;6051275;28;20028;-66
2022/07/30 00:07:11;;;;;;;4.43;2.03;;;;;;;18.91;70.15;100858.75;6050099;28;20033;-64
2022/07/30 00:10:07;;;;;;;3.83;2.10;;;;;;;18.93;70.06;100856.69;6049430;28;20036;-65
2022/07/30 00:13:02;;;;;;;5.95;2.20;;;;;;;18.83;70.62;100848.13;6050762;28;20033;-64
2022/07/30 00:15:57;;;;;;;7.03;2.17;;;;;;;18.76;71.17;100841.88;6049878;28;20033;-64
2022/07/30 00:18:52;;;;;;;8.00;2.30;;;;;;;18.81;71.35;100842.13;6050117;28;20080;-66
2022/07/30 00:21:48;;;;;;;4.23;1.80;;;;;;;18.77;71.07;100837.34;6049800;28;20101;-66
2022/07/30 00:24:43;;;;;;;6.20;2.07;;;;;;;18.71;71.44;100833.59;6049628;28;20026;-65
2022/07/30 00:27:38;;;;;;;7.50;2.10;;;;;;;18.77;71.39;100840.88;6050255;28;20049;-65
2022/07/30 00:30:34;;;;;;;4.97;2.07;;;;;;;18.75;71.16;100842.91;6049026;28;20109;-66
2022/07/30 00:33:29;;;;;;;3.35;2.03;;;;;;;18.79;71.25;100856.78;6049365;28;20312;-66
2022/07/30 00:36:24;;;;;;;5.40;2.10;;;;;;;18.83;71.48;100860.75;6049670;28;20104;-65
2022/07/30 00:39:20;;;;;;;6.28;2.40;;;;;;;18.75;71.74;100837.53;6049581;28;20029;-64
2022/07/30 00:42:16;;;;;;;5.30;2.43;;;;;;;18.66;72.77;100846.78;6049211;28;20036;-65
2022/07/30 00:45:13;;;;;;;7.05;2.65;;;;;;;18.65;73.42;100863.91;6049000;28;20029;-64
2022/07/30 00:48:10;;;;;;;5.07;2.50;;;;;;;18.50;74.50;100844.38;6049873;28;20041;-66
2022/07/30 00:51:05;;;;;;;5.47;2.50;;;;;;;18.42;74.47;100839.13;6048794;28;20038;-66
2022/07/30 00:54:00;;;;;;;8.25;2.80;;;;;;;18.37;75.03;100841.56;6049160;28;20173;-65
2022/07/30 00:56:56;;;;;;;6.63;2.67;;;;;;;18.39;75.32;100853.75;6049572;28;20034;-64
2022/07/30 00:59:51;;;;;;;4.67;2.30;;;;;;;18.36;75.56;100848.78;6048772;28;20034;-66
2022/07/30 01:02:46;;;;;;;6.07;2.70;;;;;;;18.40;75.59;100852.72;6049140;28;20028;-65
2022/07/30 01:05:42;;;;;;;7.53;2.47;;;;;;;18.38;74.83;100845.88;6049006;28;20038;-66
2022/07/30 01:08:37;;;;;;;7.23;2.10;;;;;;;18.43;74.29;100840.75;6049484;28;20485;-66
2022/07/30 01:11:40;;;;;;;6.37;2.40;;;;;;;18.35;74.30;100840.88;6048969;28;20108;-65
2022/07/30 01:14:36;;;;;;;4.47;2.42;;;;;;;18.44;74.15;100847.78;6064272;28;20061;-65
2022/07/30 01:17:31;;;;;;;9.80;2.60;;;;;;;18.42;74.60;100849.84;6048765;28;20047;-66
2022/07/30 01:20:49;;;;;;;5.78;2.55;;;;;;;18.44;74.23;100845.09;6045758;28;20033;-66
2022/07/30 01:23:45;;;;;;;6.55;2.38;;;;;;;18.38;74.32;100840.50;6047959;28;20042;-65
2022/07/30 01:26:41;;;;;;;6.05;2.70;;;;;;;18.25;74.49;100835.88;6048871;28;20041;-64
2022/07/30 01:29:37;;;;;;;6.63;2.28;;;;;;;18.31;74.87;100861.13;6048788;28;20397;-64
2022/07/30 01:32:34;;;;;;;7.18;2.58;;;;;;;18.28;75.05;100845.38;6047053;28;20026;-65
2022/07/30 01:35:31;;;;;;;5.78;2.40;;;;;;;18.39;74.20;100859.13;6047231;28;20033;-66
2022/07/30 01:38:29;;;;;;;9.60;2.70;;;;;;;18.39;74.58;100863.66;6047934;28;20034;-64
2022/07/30 01:41:25;;;;;;;5.00;2.42;;;;;;;18.32;74.94;100852.00;6048161;28;20030;-65
2022/07/30 01:44:21;;;;;;;5.82;2.28;;;;;;;18.32;74.61;100852.00;6047926;28;20033;-66
2022/07/30 01:47:17;;;;;;;6.43;2.90;;;;;;;18.21;75.23;100852.53;6064049;28;20022;-64
2022/07/30 01:50:13;;;;;;;4.75;2.38;;;;;;;18.19;75.65;100860.78;6063049;28;20025;-65
2022/07/30 01:53:15;;;;;;;9.05;2.60;;;;;;;18.23;75.74;100858.56;6045477;28;20033;-64
2022/07/30 01:56:12;;;;;;;6.32;2.35;;;;;;;18.15;75.84;100856.84;6049066;28;20169;-66
2022/07/30 01:59:09;;;;;;;6.07;2.45;;;;;;;18.13;76.19;100860.72;6047434;28;20036;-64
2022/07/30 02:02:04;;;;;;;9.98;2.88;;;;;;;18.12;76.24;100857.22;6048318;28;20021;-65
2022/07/30 02:05:00;;;;;;;4.43;2.57;;;;;;;18.23;76.01;100869.28;6048531;28;20468;-65
2022/07/30 02:08:00;;;;;;;4.00;2.33;;;;;;;18.21;76.16;100860.56;6063524;28;20288;-66
2022/07/30 02:11:06;;;;;;;6.15;2.13;;;;;;;18.27;76.73;100871.41;6044412;28;20620;-64
2022/07/30 02:14:06;;;;;;;8.95;2.60;;;;;;;18.19;76.30;100868.00;6047916;28;20109;-64
2022/07/30 02:17:02;;;;;;;7.22;2.80;;;;;;;18.13;77.18;100869.59;6046980;28;20392;-66
2022/07/30 02:19:57;;;;;;;6.22;2.67;;;;;;;18.19;77.14;100889.47;6047622;28;20044;-66
2022/07/30 02:22:54;;;;;;;7.38;2.13;;;;;;;18.13;77.28;100893.75;6062639;28;20033;-64
2022/07/30 02:25:50;;;;;;;9.02;2.80;;;;;;;17.93;78.23;100886.53;6047385;28;20029;-64
2022/07/30 02:28:54;;;;;;;5.40;2.33;;;;;;;17.99;78.23;100904.56;6047431;28;20389;-65
2022/07/30 02:31:51;;;;;;;9.20;2.65;;;;;;;17.91;78.83;100888.56;6066687;28;20100;-65
2022/07/30 02:34:49;;;;;;;5.47;2.40;;;;;;;17.94;78.68;100907.78;6051604;28;20476;-64
2022/07/30 02:37:46;;;;;;;6.32;3.50;;;;;;;17.88;78.99;100902.38;6045704;28;20038;-65
2022/07/30 02:40:42;;;;;;;5.85;3.17;;;;;;;17.86;79.31;100902.53;6050526;28;20075;-65
2022/07/30 02:43:39;;;;;;;5.47;2.60;;;;;;;17.88;79.01;100905.03;6052367;28;20030;-66
2022/07/30 02:46:36;;;;;;;8.45;3.47;;;;;;;17.89;78.95;100912.06;6051453;28;20084;-62
2022/07/30 02:49:34;;;;;;;4.75;2.53;;;;;;;17.87;78.87;100911.41;6050725;28;20030;-67
2022/07/30 02:52:31;;;;;;;11.32;2.92;;;;;;;17.86;79.13;100910.59;6051838;28;20030;-66
2022/07/30 02:55:29;;;;;;;6.43;2.90;;;;;;;17.85;79.19;100909.75;6052290;28;20419;-65
2022/07/30 02:58:25;;;;;;;7.93;2.90;;;;;;;17.84;78.89;100912.63;6067889;28;20018;-65
2022/07/30 03:01:21;;;;;;;6.10;3.35;;;;;;;17.89;79.34;100920.09;6052118;28;20049;-65
2022/07/30 03:04:19;;;;;;;6.32;2.95;;;;;;;17.84;80.01;100929.56;6067885;28;20026;-66
2022/07/30 03:07:15;;;;;;;6.63;3.03;;;;;;;17.76;81.32;100926.16;6067563;28;20028;-66
2022/07/30 03:10:12;;;;;;;4.40;2.83;;;;;;;17.69;81.87;100925.25;6066703;28;20461;-64
2022/07/30 03:13:08;;;;;;;6.00;2.80;;;;;;;17.70;82.28;100943.81;6067191;28;20022;-64
2022/07/30 03:16:06;;;;;;;5.28;3.00;;;;;;;17.67;82.72;100943.34;6067369;28;20034;-66
2022/07/30 03:19:02;;;;;;;6.10;2.72;;;;;;;17.87;82.36;100954.34;6067155;28;20029;-65
2022/07/30 03:21:59;;;;;;;5.45;3.17;;;;;;;17.64;82.45;100966.03;6066305;28;20113;-65
2022/07/30 03:24:56;;;;;;;8.95;3.10;;;;;;;17.59;82.86;100963.06;6050962;28;20457;-65
2022/07/30 03:27:53;;;;;;;6.78;3.58;;;;;;;17.53;83.63;100974.53;6051881;28;20038;-64
2022/07/30 03:30:50;;;;;;;9.85;4.13;;;;;;;17.30;84.40;100975.59;6066572;28;20029;-64
2022/07/30 03:33:45;;;;;;;8.68;4.65;;;;;;;17.20;85.84;100981.22;6066590;28;20040;-64
2022/07/30 03:36:41;;;;;;;9.50;5.40;;;;;;;17.04;87.71;101000.16;6067271;28;20381;-63
2022/07/30 03:39:36;;;;;;;8.67;5.20;;;;;;;16.91;89.60;101000.72;6051445;28;20125;-63
2022/07/30 03:42:33;;;;;;;12.55;5.55;;;;;;;16.71;90.46;101015.66;6048726;28;20040;-63
2022/07/30 03:45:29;;;;;;;10.75;5.85;;;;;;;16.56;92.26;101012.88;6067108;28;20036;-62
2022/07/30 03:48:25;;;;;;;15.27;6.45;;;;;;;16.44;93.92;101018.81;6050266;28;20029;-63
2022/07/30 03:51:20;;;;;;;17.50;7.55;;;;;;;16.43;95.00;101028.66;6048876;28;20053;-63
2022/07/30 03:54:17;;;;;;;13.45;7.50;;;;;;;16.45;95.89;101034.66;6060462;28;20037;-63
2022/07/30 03:57:13;;;;;;;15.45;7.68;;;;;;;16.40;96.38;101026.34;6050962;28;20092;-62
2022/07/30 04:00:13;;;;;;;11.43;6.32;;;;;;;16.42;97.36;101016.28;6049586;28;20038;-63
2022/07/30 04:03:09;;;;;;;;;;;;;;;16.43;97.72;101036.69;6050404;28;20038;-63
2022/07/30 04:06:04;;;;;;;13.03;7.17;;;;;;;16.46;98.39;101017.63;6048803;28;19952;-63
2022/07/30 04:08:59;;;;;;;14.07;8.38;;;;;;;16.40;98.81;101033.53;6049920;28;20029;-64
2022/07/30 04:11:55;;;;;;;12.27;7.27;;;;;;;16.21;99.88;101018.75;6050051;28;20030;-64
2022/07/30 04:14:52;;;;;;;12.83;7.30;;;;;;;16.24;100.00;101034.47;6050498;28;20029;-64
2022/07/30 04:17:48;;;;;;;13.23;7.10;;;;;;;16.15;100.00;101027.47;6045638;28;20395;-63
2022/07/30 04:20:46;;;;;;;11.70;6.97;;;;;;;16.05;100.00;101013.47;6064795;28;20022;-64
2022/07/30 04:23:42;;;;;;;18.40;7.18;;;;;;;16.00;100.00;101015.84;6048368;28;20458;-65
2022/07/30 04:26:37;;;;;;;15.85;7.13;;;;;;;15.87;100.00;101002.19;6049251;28;20095;-65
2022/07/30 04:29:33;;;;;;;11.85;7.35;;;;;;;16.05;100.00;101008.13;6048268;28;20041;-64
2022/07/30 04:32:29;;;;;;;11.70;7.45;;;;;;;16.04;100.00;101009.13;6049603;28;20040;-65
2022/07/30 04:35:27;;;;;;;11.65;6.93;;;;;;;15.97;100.00;100997.47;6050142;28;20034;-64
2022/07/30 04:38:22;;;;;;;13.73;7.60;;;;;;;15.92;100.00;100989.97;6050190;28;20385;-64
2022/07/30 04:41:18;;;;;;;13.87;7.83;;;;;;;15.73;100.00;100982.34;6049407;28;20065;-64
2022/07/30 04:44:13;;;;;;;13.17;6.80;;;;;;;15.71;100.00;100980.84;6049797;28;20030;-65
2022/07/30 04:47:08;;;;;;;14.20;6.57;;;;;;;15.69;100.00;100975.66;6049694;28;20065;-64
2022/07/30 04:50:06;;;;;;;10.40;6.30;;;;;;;15.70;100.00;100980.03;6049848;28;20040;-64
2022/07/30 04:53:02;;;;;;;11.77;6.30;;;;;;;15.75;100.00;100980.31;6064489;28;20284;-64
2022/07/30 04:55:58;;;;;;;9.82;6.07;;;;;;;15.84;100.00;100989.16;6049797;28;20383;-64
2022/07/30 04:58:53;;;;;;;11.27;6.57;;;;;;;15.75;100.00;100979.50;6049059;28;20057;-64
2022/07/30 05:01:49;;;;;;;11.05;6.60;;;;;;;15.84;100.00;100983.81;6063930;28;20040;-65
2022/07/30 05:04:45;;;;;;;12.30;6.32;;;;;;;15.82;100.00;100980.44;6041698;28;20381;-64
2022/07/30 05:07:40;;;;;;;14.98;7.35;;;;;;;15.81;100.00;100968.09;6045709;28;20172;-64
2022/07/30 05:10:36;;;;;;;13.68;7.32;;;;;;;15.96;100.00;100993.09;6047659;28;20038;-65
2022/07/30 05:13:32;;;;;;;14.48;7.15;;;;;;;15.87;100.00;100972.78;6048443;28;20045;-64
2022/07/30 05:16:28;;;;;;;12.70;6.50;;;;;;;16.03;100.00;100978.03;6049314;28;20037;-64
2022/07/30 05:19:24;;;;;;;10.05;5.85;;;;;;;15.95;100.00;100981.56;6049266;28;20022;-64
2022/07/30 05:22:19;;;;;;;12.75;6.68;;;;;;;15.84;100.00;100947.22;6048674;28;20052;-64
2022/07/30 05:25:16;;;;;;;11.73;6.50;;;;;;;15.93;100.00;100978.22;6049383;28;20040;-65
2022/07/30 05:28:11;;;;;;;12.05;5.95;;;;;;;16.08;100.00;100989.88;6049574;28;20030;-65
2022/07/30 05:31:06;;;;;;;10.37;5.83;;;;;;;16.21;100.00;100983.13;6048304;28;20373;-63
2022/07/30 05:34:02;;;;;;;10.13;5.37;;;;;;;15.93;100.00;100982.75;6049549;28;20037;-63
2022/07/30 05:36:57;;;;;;;25.08;13.10;;;;;;;16.20;100.00;101000.19;6048457;28;20105;-63
2022/07/30 05:39:53;;;;;;;8.53;5.53;;;;;;;16.10;100.00;100995.06;6048413;28;20080;-64
2022/07/30 05:42:48;;;;;;;9.18;5.50;;;;;;;16.03;100.00;100989.56;6048661;28;20091;-64
2022/07/30 05:45:43;;;;;;;10.63;5.07;;;;;;;16.17;100.00;101001.34;6048914;28;20433;-63
2022/07/30 05:48:38;;;;;;;8.73;5.30;;;;;;;16.27;100.00;101010.03;6049405;28;20497;-63
2022/07/30 05:51:34;;;;;;;10.97;6.30;;;;;;;16.37;100.00;101004.44;6047749;28;20022;-66
2022/07/30 05:54:29;;;;;;;7.63;5.33;;;;;;;16.35;100.00;101014.50;6048870;28;20339;-65
2022/07/30 05:57:24;;;;;;;9.33;5.43;;;;;;;16.42;100.00;101018.13;6049203;28;20026;-65
2022/07/30 06:00:20;;;;;;;9.07;4.63;;;;;;;16.54;100.00;100998.00;6048310;28;20017;-64
2022/07/30 06:03:15;;;;;;;8.43;5.03;;;;;;;16.66;100.00;101007.28;6049186;28;20038;-65
2022/07/30 06:06:10;;;;;;;7.63;4.20;;;;;;;16.75;100.00;101019.63;6052520;28;20152;-65
2022/07/30 06:09:06;;;;;;;11.00;5.73;;;;;;;16.72;100.00;101022.66;6053123;28;20280;-65
2022/07/30 06:12:01;;;;;;;7.77;5.50;;;;;;;16.78;100.00;101018.41;6052590;28;20277;-64
2022/07/30 06:14:56;;;;;;;8.07;5.20;;;;;;;17.01;100.00;101043.38;6051433;28;20034;-65
2022/07/30 06:17:52;;;;;;;8.93;4.88;;;;;;;17.05;100.00;101042.81;6053053;28;20026;-65
2022/07/30 06:20:50;;;;;;;7.90;4.47;;;;;;;17.39;100.00;101050.41;6052521;28;20069;-64
2022/07/30 06:23:45;;;;;;;7.40;4.40;;;;;;;17.75;100.00;101053.25;6052564;28;20028;-64
2022/07/30 06:26:41;;;;;;;7.33;4.10;;;;;;;17.60;99.35;101047.88;6052575;28;20061;-63
2022/07/30 06:29:36;;;;;;;10.00;4.80;;;;;;;17.51;98.09;101051.63;6053244;28;20392;-63
2022/07/30 06:32:31;;;;;;;9.00;5.10;;;;;;;17.53;98.25;101052.31;6053753;28;20361;-64
2022/07/30 06:35:27;;;;;;;11.23;6.67;;;;;;;17.26;98.20;101058.22;6052327;28;20026;-64
2022/07/30 06:38:22;;;;;;;12.53;6.00;;;;;;;17.26;99.34;101058.22;6052127;28;20034;-63
2022/07/30 06:41:17;;;;;;;9.33;5.67;;;;;;;17.77;99.30;101041.31;6051370;28;20366;-63
2022/07/30 06:44:13;;;;;;;9.93;5.50;;;;;;;17.82;98.59;101047.00;6052729;28;20033;-64
2022/07/30 06:47:08;;;;;;;8.53;4.73;;;;;;;17.72;96.86;101049.09;6053146;28;20034;-63
2022/07/30 06:50:04;;;;;;;8.73;4.95;;;;;;;18.08;97.03;101043.81;6051286;28;20025;-64
2022/07/30 06:52:59;;;;;;;8.05;4.65;;;;;;;18.27;97.03;101053.97;6052314;28;20037;-64
2022/07/30 06:55:54;;;;;;;7.07;4.27;;;;;;;18.38;95.73;101049.97;6052127;28;20029;-64
2022/07/30 06:58:50;;;;;;;7.70;4.27;;;;;;;18.38;94.42;101044.59;6052396;28;20076;-64
2022/07/30 07:01:45;;;;;;;7.70;4.30;;;;;;;18.95;93.14;101037.41;6051620;28;20069;-64
2022/07/30 07:04:40;;;;;;;7.80;4.67;;;;;;;19.18;92.08;101039.06;6051834;28;20048;-64
2022/07/30 07:07:36;;;;;;;11.30;4.33;;;;;;;19.91;91.02;101050.19;6052415;28;20271;-65
2022/07/30 07:10:31;;;;;;;7.38;4.22;;;;;;;20.32;86.69;101036.75;6051438;28;20481;-65
2022/07/30 07:13:27;;;;;;;7.15;3.88;;;;;;;20.48;86.98;101027.47;6051825;28;20374;-64
2022/07/30 07:16:24;;;;;;;5.97;3.80;;;;;;;20.26;84.22;101025.91;6051037;28;20056;-64
2022/07/30 07:19:19;;;;;;;5.53;3.65;;;;;;;20.05;84.66;101021.47;6051494;28;20426;-64
2022/07/30 07:22:14;;;;;;;7.20;3.72;;;;;;;19.49;86.17;101009.94;6050960;28;20037;-65
2022/07/30 07:25:10;;;;;;;11.37;4.30;;;;;;;19.48;88.14;101014.50;6051251;28;20041;-66
2022/07/30 07:28:06;;;;;;;5.97;3.53;;;;;;;19.48;87.83;100998.38;6050750;28;20363;-65
2022/07/30 07:31:02;;;;;;;7.95;4.10;;;;;;;19.38;87.28;100995.19;6049731;28;20340;-66
2022/07/30 07:33:57;;;;;;;10.30;3.95;;;;;;;19.43;88.84;101010.75;6050972;28;20080;-65
2022/07/30 07:36:52;;;;;;;5.97;3.73;;;;;;;19.88;87.84;101002.13;6047849;28;20021;-64
2022/07/30 07:39:48;;;;;;;7.13;3.90;;;;;;;19.88;86.64;101009.34;6050223;28;20277;-65
2022/07/30 07:42:43;;;;;;;6.33;3.80;;;;;;;19.81;85.28;100997.75;6048901;28;20191;-66
2022/07/30 07:45:38;;;;;;;5.33;3.70;;;;;;;19.65;86.63;100998.06;6048432;28;20026;-65
2022/07/30 07:48:33;;;;;;;5.70;3.67;;;;;;;19.83;86.08;100999.19;6049752;28;20029;-65
2022/07/30 07:51:29;;;;;;;5.05;3.08;;;;;;;20.24;85.02;101007.28;6050002;28;20026;-66
2022/07/30 07:54:24;;;;;;;5.37;2.93;;;;;;;20.38;82.51;101008.16;6049934;28;20450;-67
2022/07/30 07:57:19;;;;;;;4.80;3.40;;;;;;;20.43;81.32;101005.69;6050471;28;20034;-65
2022/07/30 08:00:16;;;;;;;6.43;3.20;;;;;;;20.53;82.02;101012.34;6050173;28;20080;-65
2022/07/30 08:03:11;;;;;;;5.65;3.08;;;;;;;20.44;80.33;101001.94;6049651;28;20472;-66
2022/07/30 08:06:07;;;;;;;5.80;2.77;;;;;;;20.62;80.25;101015.69;6050134;28;20030;-66
2022/07/30 08:09:02;;;;;;;8.77;2.80;;;;;;;20.80;78.20;101018.63;6049872;28;20029;-66
2022/07/30 08:11:59;;;;;;;5.72;2.78;;;;;;;21.27;74.84;101015.78;6049661;28;20273;-64
2022/07/30 08:14:54;;;;;;;4.93;2.78;;;;;;;21.26;77.47;101016.81;6049678;28;20036;-65
2022/07/30 08:17:49;;;;;;;4.03;2.90;;;;;;;21.41;76.47;101016.59;6049369;28;20022;-65
2022/07/30 08:20:45;;;;;;;6.03;2.90;;;;;;;21.31;75.62;101016.16;6049290;28;20025;-66
2022/07/30 08:23:40;;;;;;;8.87;2.60;;;;;;;21.19;75.27;101017.84;6049446;28;20543;-64
2022/07/30 08:26:36;;;;;;;3.80;2.40;;;;;;;21.17;76.28;101015.34;6049289;28;20264;-65
2022/07/30 08:29:31;;;;;;;4.47;2.47;;;;;;;21.43;72.90;101006.41;6047582;28;20026;-65
2022/07/30 08:32:26;;;;;;;4.47;2.15;;;;;;;21.15;75.41;101016.59;6048663;28;20026;-65
2022/07/30 08:35:22;;;;;;;5.30;2.70;;;;;;;21.01;74.33;101009.53;6049586;28;20113;-65
2022/07/30 08:38:17;;;;;;;5.30;2.42;;;;;;;21.17;74.13;101004.56;6049321;28;20390;-64
2022/07/30 08:41:16;;;;;;;3.60;2.23;;;;;;;21.28;74.31;101009.31;6047845;28;20373;-64
2022/07/30 08:44:12;;;;;;;6.05;2.67;;;;;;;21.51;73.60;101008.06;6049163;28;20344;-64
2022/07/30 08:47:08;;;;;;;5.77;2.47;;;;;;;21.77;71.35;101010.69;6049448;28;20480;-64
2022/07/30 08:50:04;;;;;;;5.13;2.35;;;;;;;22.06;69.87;100994.03;6048029;28;20386;-64
2022/07/30 08:53:02;;;;;;;3.30;2.20;;;;;;;22.43;69.60;101017.56;6048817;28;20041;-64
2022/07/30 08:55:57;;;;;;;3.60;2.22;;;;;;;22.60;68.00;101012.47;6051274;28;20026;-64
2022/07/30 08:58:53;;;;;;;2.70;1.80;;;;;;;22.87;66.99;101011.28;6064953;28;20068;-65
2022/07/30 09:01:50;;;;;;;3.53;2.10;;;;;;;22.84;66.25;101013.59;6047354;28;20105;-65
2022/07/30 09:04:46;;;;;;;3.80;2.10;;;;;;;23.09;65.88;101011.75;6048122;28;20030;-64
2022/07/30 09:07:42;;;;;;;3.67;2.27;;;;;;;23.35;63.61;101025.03;6048623;28;20093;-63
2022/07/30 09:10:37;;;;;;;4.70;2.20;;;;;;;23.07;65.55;101019.25;6048232;28;20698;-64
2022/07/30 09:13:35;;;;;;;4.20;2.47;;;;;;;23.28;62.66;101018.88;6049004;28;20028;-64
2022/07/30 09:16:30;;;;;;;3.90;2.30;;;;;;;23.59;63.05;101018.78;6048521;28;20280;-64
2022/07/30 09:19:25;;;;;;;4.47;2.20;;;;;;;23.53;61.91;101018.88;6049298;28;20064;-64
2022/07/30 09:22:20;;;;;;;4.20;2.03;;;;;;;23.70;61.60;101031.59;6048108;28;20064;-65
2022/07/30 09:25:32;;;;;;;3.43;2.37;;;;;;;23.54;63.36;101021.34;6048549;28;20033;-65
2022/07/30 09:28:29;;;;;;;2.83;2.22;;;;;;;24.17;60.84;101048.22;6047762;28;20034;-65
2022/07/30 09:31:26;;;;;;;4.03;2.38;;;;;;;24.55;60.01;101037.09;6045924;28;20022;-65
2022/07/30 09:34:30;;;;;;;4.78;2.25;;;;;;;24.28;58.50;101039.31;6047391;28;20537;-64
2022/07/30 09:37:25;;;;;;;4.38;2.05;;;;;;;24.33;58.84;101035.91;6047284;28;20034;-65
2022/07/30 09:40:21;;;;;;;3.43;2.07;;;;;;;24.69;60.71;101030.44;6050475;28;20093;-64
2022/07/30 09:43:16;;;;;;;3.13;1.90;;;;;;;24.70;58.63;101032.91;6053945;28;20036;-65
2022/07/30 09:46:12;;;;;;;3.07;1.90;;;;;;;24.91;58.61;101033.47;6053233;28;20040;-65
2022/07/30 09:49:15;;;;;;;3.60;1.85;;;;;;;25.30;55.04;101043.72;6053290;28;20029;-65
2022/07/30 09:52:26;;;;;;;2.53;1.75;;;;;;;25.66;53.18;101042.66;6052699;28;20061;-64
2022/07/30 09:55:33;;;;;;;2.95;1.85;;;;;;;25.65;52.70;101044.59;6052850;28;20366;-65
2022/07/30 09:58:39;;;;;;;2.50;1.60;;;;;;;26.05;54.00;101044.66;6053396;28;20034;-64
2022/07/30 10:01:51;;;;;;;3.83;1.80;;;;;;;26.02;54.12;101045.13;6052491;28;20025;-65
2022/07/30 10:04:46;;;;;;;3.58;1.88;;;;;;;26.66;52.53;101037.75;6053688;28;20026;-64
2022/07/30 10:07:57;;;;;;;4.03;1.70;;;;;;;26.21;52.01;101041.22;6068188;28;20026;-64
2022/07/30 10:10:52;;;;;;;2.65;1.77;;;;;;;25.89;50.92;101043.50;6051973;28;20268;-64
2022/07/30 10:13:49;;;;;;;5.13;1.80;;;;;;;25.30;51.00;101041.00;6052346;28;20026;-64
2022/07/30 10:16:45;;;;;;;2.97;1.80;;;;;;;25.10;51.55;101051.34;6052906;28;20036;-64
2022/07/30 10:19:40;;;;;;;6.75;1.95;;;;;;;25.28;53.94;101032.22;6052614;28;20025;-64
2022/07/30 10:22:35;;;;;;;3.87;2.10;;;;;;;25.47;54.21;101041.13;6051576;28;20040;-64
2022/07/30 10:25:31;;;;;;;3.13;1.88;;;;;;;25.58;54.00;101041.16;6051196;28;20035;-64
2022/07/30 10:28:28;;;;;;;3.67;1.80;;;;;;;25.44;52.15;101029.66;6051682;28;20443;-64
2022/07/30 10:31:25;;;;;;;3.65;1.65;;;;;;;25.87;51.69;101034.72;6050446;28;20295;-64
2022/07/30 10:34:20;;;;;;;2.95;1.92;;;;;;;25.96;49.10;101036.03;6049454;28;20045;-64
2022/07/30 10:37:16;;;;;;;3.30;1.80;;;;;;;25.83;47.68;101033.56;6050614;28;20022;-64
2022/07/30 10:40:17;;;;;;;5.85;1.90;;;;;;;25.65;51.59;101025.56;6050013;28;20926;-64
2022/07/30 10:43:42;;;;;;;4.72;2.03;;;;;;;25.92;51.06;101026.72;6050774;28;20127;-65
2022/07/30 10:47:02;;;;;;;2.22;1.73;;;;;;;26.34;47.82;101040.09;6050904;28;20044;-64
2022/07/30 10:50:08;;;;;;;5.63;1.90;;;;;;;26.20;52.76;101039.53;6032484;28;20041;-65
2022/07/30 10:53:03;;;;;;;2.28;1.73;;;;;;;26.44;49.97;101024.81;6049639;28;20092;-65
2022/07/30 10:56:14;;;;;;;3.80;2.03;;;;;;;26.62;47.51;101031.97;6049706;28;20109;-65
2022/07/30 10:59:09;;;;;;;4.55;1.92;;;;;;;26.20;47.23;101034.09;6049651;28;20026;-65
2022/07/30 11:02:08;;;;;;;3.20;1.73;;;;;;;26.35;47.77;101030.88;6048799;28;20042;-65
2022/07/30 11:05:16;;;;;;;3.58;2.03;;;;;;;26.01;49.17;101036.13;6049539;28;20108;-65
2022/07/30 11:08:37;;;;;;;3.17;1.95;;;;;;;26.24;48.23;101039.91;6050286;28;20034;-65
2022/07/30 11:11:36;;;;;;;5.93;2.15;;;;;;;26.20;52.22;101039.53;6049822;28;20076;-65
2022/07/30 11:14:46;;;;;;;3.33;2.13;;;;;;;25.26;49.31;101035.19;6050223;28;20369;-64
2022/07/30 11:18:04;;;;;;;3.17;2.05;;;;;;;25.47;49.79;101033.81;6050242;28;20030;-64
2022/07/30 11:21:14;;;;;;;3.70;2.03;;;;;;;26.17;48.24;101028.34;6049741;28;20037;-65
2022/07/30 11:24:44;;;;;;;4.13;1.85;;;;;;;26.82;47.15;101042.44;6037750;28;20125;-65
2022/07/30 11:27:41;;;;;;;3.53;1.92;;;;;;;27.15;47.11;101029.66;6039671;28;20393;-65
2022/07/30 11:30:36;;;;;;;3.90;2.15;;;;;;;27.33;45.46;101031.31;6049728;28;20157;-65
2022/07/30 11:33:31;;;;;;;2.90;2.20;;;;;;;28.39;43.70;101040.19;6011206;28;1106283;-65
2022/07/30 11:36:28;;;;;;;2.35;1.70;;;;;;;28.07;43.19;101035.47;6051516;28;20373;-64
2022/07/30 11:39:23;;;;;;;2.83;1.90;;;;;;;27.80;44.43;101023.63;6050431;28;20441;-65
2022/07/30 11:42:29;;;;;;;4.83;1.87;;;;;;;26.96;43.91;101027.44;6050767;28;20029;-65
2022/07/30 11:45:28;;;;;;;3.80;1.58;;;;;;;27.30;45.05;101028.25;6050642;28;20029;-64
2022/07/30 11:48:23;;;;;;;4.25;1.88;;;;;;;27.43;43.52;101030.69;6051395;28;20083;-65
2022/07/30 11:51:18;;;;;;;4.17;1.90;;;;;;;27.42;44.30;101015.41;6050131;28;20026;-64
2022/07/30 11:54:14;;;;;;;2.92;1.90;;;;;;;27.56;44.99;101013.97;6050346;28;20075;-64
2022/07/30 11:57:09;;;;;;;3.80;2.00;;;;;;;27.90;43.43;101023.75;6050387;28;20041;-65
2022/07/30 12:00:05;;;;;;;3.10;1.83;;;;;;;28.17;43.40;101026.56;6065249;28;20608;-65
2022/07/30 12:03:10;;;;;;;2.63;1.60;;;;;;;27.37;42.68;101016.13;6050132;28;20492;-64
2022/07/30 12:06:08;;;;;;;3.47;1.80;;;;;;;27.30;43.71;101029.09;6049996;28;20109;-64
2022/07/30 12:09:03;;;;;;;2.70;1.85;;;;;;;27.65;44.04;101021.50;6050207;28;20033;-64
2022/07/30 12:11:58;;;;;;;3.63;1.97;;;;;;;27.95;42.33;101010.16;6049947;28;20030;-64
2022/07/30 12:14:54;;;;;;;2.33;1.60;;;;;;;28.25;38.34;101016.03;6050534;28;20264;-65
2022/07/30 12:17:49;;;;;;;2.50;1.47;;;;;;;28.14;38.60;101017.00;6050585;28;20769;-65
2022/07/30 12:20:52;;;;;;;4.60;1.50;;;;;;;28.30;39.57;101024.28;6049752;28;20018;-66
2022/07/30 12:23:59;;;;;;;3.00;1.60;;;;;;;28.38;40.60;101030.34;6065541;28;20450;-65
2022/07/30 12:27:05;;;;;;;2.83;1.60;;;;;;;28.41;39.06;101024.38;6048967;28;20025;-64
2022/07/30 12:30:02;;;;;;;3.47;1.85;;;;;;;28.12;40.99;101021.88;6049642;28;20091;-64
2022/07/30 12:32:57;;;;;;;4.57;2.20;;;;;;;27.64;41.07;101024.47;6064919;28;20497;-63
2022/07/30 12:35:59;;;;;;;3.00;1.70;;;;;;;27.41;39.41;101019.22;6048952;28;20084;-65
2022/07/30 12:38:56;;;;;;;2.55;1.90;;;;;;;27.39;40.08;101011.28;6050154;28;20028;-66
2022/07/30 12:41:54;;;;;;;2.47;1.65;;;;;;;26.71;40.60;101011.44;6048915;28;20061;-66
2022/07/30 12:44:50;;;;;;;3.35;1.70;;;;;;;26.25;42.01;101014.38;6050105;28;20040;-64
2022/07/30 12:47:48;;;;;;;2.83;1.50;;;;;;;26.86;43.00;101025.34;6050313;28;20389;-66
2022/07/30 12:50:44;;;;;;;3.58;1.80;;;;;;;27.82;40.41;101016.00;6049040;28;20517;-65
2022/07/30 12:53:39;;;;;;;3.87;1.70;;;;;;;28.12;38.54;101000.06;6049899;28;20087;-66
2022/07/30 12:56:34;;;;;;;3.20;1.60;;;;;;;28.49;38.01;101002.09;6049708;28;20609;-64
2022/07/30 12:59:31;;;;;;;3.87;1.77;;;;;;;28.10;39.60;100998.66;6048891;28;20513;-66
2022/07/30 13:02:33;;;;;;;2.88;1.80;;;;;;;27.66;39.80;100984.16;6048688;28;20036;-65
2022/07/30 13:06:01;;;;;;;3.17;1.70;;;;;;;27.70;40.09;100994.28;6049781;28;20041;-64
2022/07/30 13:08:57;;;;;;;2.67;1.83;;;;;;;28.10;41.04;100990.50;6026059;28;20041;-64
2022/07/30 13:11:53;;;;;;;3.60;1.98;;;;;;;28.71;37.88;100979.16;6048074;28;20116;-65
2022/07/30 13:14:48;;;;;;;3.47;1.93;;;;;;;28.67;37.88;100988.13;6047802;28;20025;-65
2022/07/30 13:17:43;;;;;;;4.10;1.60;;;;;;;28.43;39.93;100994.97;6048856;28;20026;-65
2022/07/30 13:20:39;;;;;;;5.05;1.80;;;;;;;28.00;39.87;100985.69;6048738;28;20034;-66
2022/07/30 13:23:38;;;;;;;3.37;1.70;;;;;;;28.30;39.61;100977.06;6049393;28;20113;-64
2022/07/30 13:26:35;;;;;;;3.42;1.65;;;;;;;28.78;38.46;100982.50;6048943;28;20030;-65
2022/07/30 13:29:30;;;;;;;3.50;1.92;;;;;;;28.09;39.80;100981.47;6046750;28;20397;-66
2022/07/30 13:32:25;;;;;;;3.20;2.07;;;;;;;27.64;41.43;100976.22;6046846;28;20041;-65
2022/07/30 13:35:21;;;;;;;4.47;1.80;;;;;;;27.91;38.81;100991.84;6047362;28;20026;-65
2022/07/30 13:38:16;;;;;;;3.50;2.00;;;;;;;27.35;42.74;100979.31;6048448;28;20024;-66
2022/07/30 13:41:12;;;;;;;3.50;1.80;;;;;;;27.06;41.89;100982.16;6048545;28;20458;-65